Beti Zeruko Izarra — EA5281 — position and weather

sailwx.info

Track history (hours):
 
Tides and Currents Weather Stations Pressure Air Temp Water Temp Dewpoint Dewpoint Depression Visibility Wind Speed Wind Dir Waves Ship Positions

Beti Zeruko Izarra

Last reported at 2017-Nov-23 12:28 UTC. Time now 2017-Nov-23 13:11 UTC.
Position N 43°25' W 002°43'.

Length 16 m; draft 1.7 m.

Type: Fishing. MMSI: 224025280.

Date/timePositionNaut miles runAvg speedWind from/ knotsBaromVisibWave heightAir tempDewpointWater temp
2017-Nov-23 12:28N 43°25' W 002°43'0 0.2
2017-Nov-23 12:00N 43°25' W 002°43'0 0.0
2017-Nov-23 11:30N 43°25' W 002°43'2 4.3
2017-Nov-23 11:00N 43°25' W 002°40'0 0.9
2017-Nov-23 10:30N 43°26' W 002°41'3 5.6
2017-Nov-23 10:00N 43°27' W 002°44'0 0.7
2017-Nov-23 09:30N 43°27' W 002°43'2 4.8
2017-Nov-23 09:00N 43°25' W 002°42'1 1.6
2017-Nov-23 08:30N 43°25' W 002°41'2 3.9
2017-Nov-23 08:00N 43°26' W 002°40'1 1.4
2017-Nov-23 07:30N 43°26' W 002°39'3 5.6
2017-Nov-23 07:00N 43°25' W 002°43'0 0.0
2017-Nov-23 06:30N 43°25' W 002°43'1 2.7
2017-Nov-23 06:00N 43°26' W 002°42'0 0.8
2017-Nov-23 05:30N 43°26' W 002°42'1 2.0
2017-Nov-23 05:00N 43°25' W 002°43'  
2017-Nov-19 10:25N 43°25' W 002°43'1 3.0
2017-Nov-19 10:01N 43°26' W 002°43'2 4.0
2017-Nov-19 09:31N 43°28' W 002°45'4 7.7
2017-Nov-19 09:00N 43°26' W 002°49'1 2.4
2017-Nov-19 08:29N 43°27' W 002°48'2 4.6
2017-Nov-19 08:00N 43°27' W 002°45'3 5.5
2017-Nov-19 07:31N 43°25' W 002°43'0 0.0
2017-Nov-17 15:37N 43°25' W 002°43'0 0.1
2017-Nov-17 15:31N 43°25' W 002°43'0 0.1
2017-Nov-17 15:00N 43°25' W 002°43'0 0.0
2017-Nov-17 14:30N 43°25' W 002°43'2 4.3
2017-Nov-17 14:00N 43°27' W 002°43'1 2.6
2017-Nov-17 13:30N 43°28' W 002°43'0 1.0
2017-Nov-17 13:00N 43°29' W 002°43'1 1.6
2017-Nov-17 12:30N 43°28' W 002°44'5 9.1
2017-Nov-17 12:00N 43°27' W 002°50'1 1.0
2017-Nov-17 11:30N 43°26' W 002°51'1 1.6
2017-Nov-17 10:50N 43°26' W 002°49'1 1.5
2017-Nov-17 10:30N 43°26' W 002°48'0 0.4
2017-Nov-17 10:01N 43°26' W 002°48'0 0.5
2017-Nov-17 09:30N 43°26' W 002°48'0 0.5
2017-Nov-17 09:01N 43°26' W 002°48'1 1.3
2017-Nov-17 08:23N 43°27' W 002°47'1 4.0
2017-Nov-17 08:01N 43°28' W 002°46'1 1.4
2017-Nov-17 07:30N 43°28' W 002°45'1 1.3
2017-Nov-17 07:01N 43°28' W 002°44'3 5.8
2017-Nov-17 06:31N 43°25' W 002°43'0 0.1
2017-Nov-17 06:01N 43°25' W 002°43'3 6.8
2017-Nov-17 05:30N 43°28' W 002°43'3 5.2
2017-Nov-17 05:01N 43°26' W 002°42'1 0.1
2017-Nov-16 16:30N 43°25' W 002°43'0 0.0
2017-Nov-16 16:01N 43°25' W 002°43'0 0.0
2017-Nov-16 15:30N 43°25' W 002°43'3 5.9
2017-Nov-16 15:00N 43°28' W 002°45'1 1.7
2017-Nov-16 14:30N 43°28' W 002°46'1 1.3
2017-Nov-16 14:00N 43°28' W 002°47'1 1.4
2017-Nov-16 13:30N 43°28' W 002°48'3 6.1
2017-Nov-16 13:00N 43°26' W 002°52'0 0.3
2017-Nov-16 12:30N 43°26' W 002°52'1 1.5
2017-Nov-16 11:44N 43°26' W 002°50'0 1.3
2017-Nov-16 11:28N 43°26' W 002°50'2 3.4
2017-Nov-16 11:00N 43°27' W 002°48'0 0.2
2017-Nov-16 10:28N 43°27' W 002°48'1 1.4
2017-Nov-16 10:00N 43°26' W 002°48'0 0.3
2017-Nov-16 09:30N 43°26' W 002°48'0 0.7
2017-Nov-16 09:00N 43°26' W 002°49'2 3.7
2017-Nov-16 08:28N 43°27' W 002°46'1 2.4
2017-Nov-16 08:00N 43°28' W 002°45'0 0.5
2017-Nov-16 07:29N 43°28' W 002°46'1 1.3
2017-Nov-16 07:00N 43°28' W 002°45'0 0.7
2017-Nov-16 06:30N 43°28' W 002°44'2 4.3
2017-Nov-16 06:00N 43°28' W 002°47'0 1.0
2017-Nov-16 05:30N 43°28' W 002°47'4 7.4
2017-Nov-16 05:00N 43°25' W 002°43'1 0.0
2017-Nov-15 16:28N 43°25' W 002°43'0 0.1
2017-Nov-15 16:00N 43°25' W 002°43'0 0.0
2017-Nov-15 15:30N 43°25' W 002°43'3 5.6
2017-Nov-15 15:00N 43°28' W 002°45'1 2.0
2017-Nov-15 14:29N 43°28' W 002°46'1 1.5
2017-Nov-15 14:00N 43°28' W 002°45'2 3.1
2017-Nov-15 13:30N 43°28' W 002°47'0 0.8
2017-Nov-15 13:00N 43°27' W 002°48'3 6.0
2017-Nov-15 12:30N 43°26' W 002°52'0 1.0
2017-Nov-15 12:00N 43°26' W 002°51'1 1.2
2017-Nov-15 11:30N 43°26' W 002°50'1 1.0
2017-Nov-15 10:53N 43°26' W 002°49'1 1.9
2017-Nov-15 10:30N 43°26' W 002°48'0 0.3
2017-Nov-15 10:00N 43°26' W 002°48'0 0.3
2017-Nov-15 09:29N 43°26' W 002°48'0 0.2
2017-Nov-15 09:00N 43°26' W 002°48'0 0.3
2017-Nov-15 08:30N 43°26' W 002°48'3 5.7
2017-Nov-15 08:00N 43°28' W 002°45'1 1.6
2017-Nov-15 07:30N 43°28' W 002°46'0 0.7
2017-Nov-15 06:57N 43°28' W 002°45'1 1.3
2017-Nov-15 06:30N 43°28' W 002°45'2 3.7
2017-Nov-15 05:58N 43°28' W 002°47'1 1.1
2017-Nov-15 05:30N 43°28' W 002°46'3 6.7
2017-Nov-15 05:00N 43°26' W 002°43'1 0.0
2017-Nov-14 11:54N 43°25' W 002°43'0 0.0
2017-Nov-14 11:30N 43°25' W 002°43'1 1.2
2017-Nov-14 11:01N 43°25' W 002°43'4 7.4
2017-Nov-14 10:30N 43°28' W 002°47'0 0.9
2017-Nov-14 10:00N 43°28' W 002°47'1 1.5
2017-Nov-14 09:29N 43°28' W 002°46'1 1.5
2017-Nov-14 09:01N 43°28' W 002°45'0 0.8
2017-Nov-14 08:31N 43°28' W 002°46'1 1.6
2017-Nov-14 08:00N 43°28' W 002°45'2 4.5
2017-Nov-14 07:31N 43°27' W 002°48'2 2.6
2017-Nov-14 06:53N 43°26' W 002°49'1 2.4
2017-Nov-14 06:30N 43°26' W 002°48'1 2.5
2017-Nov-14 06:01N 43°28' W 002°47'1 2.7
2017-Nov-14 05:28N 43°28' W 002°46'3 7.0
2017-Nov-14 05:00N 43°26' W 002°43'  
Track history (hours):
 
Tides and Currents Weather Stations Pressure Air Temp Water Temp Dewpoint Dewpoint Depression Visibility Wind Speed Wind Dir Waves Ship Positions

Beti Zeruko Izarra

Last reported at 2017-Nov-23 12:28 UTC. Time now 2017-Nov-23 13:11 UTC.
Position N 43°25' W 002°43'.

Length 16 m; draft 1.7 m.

Type: Fishing. MMSI: 224025280.

Date/timePositionNaut miles runAvg speedWind from/ knotsBaromVisibWave heightAir tempDewpointWater temp
2017-Nov-23 12:28N 43°25' W 002°43'0 0.2
2017-Nov-23 12:00N 43°25' W 002°43'0 0.0
2017-Nov-23 11:30N 43°25' W 002°43'2 4.3
2017-Nov-23 11:00N 43°25' W 002°40'0 0.9
2017-Nov-23 10:30N 43°26' W 002°41'3 5.6
2017-Nov-23 10:00N 43°27' W 002°44'0 0.7
2017-Nov-23 09:30N 43°27' W 002°43'2 4.8
2017-Nov-23 09:00N 43°25' W 002°42'1 1.6
2017-Nov-23 08:30N 43°25' W 002°41'2 3.9
2017-Nov-23 08:00N 43°26' W 002°40'1 1.4
2017-Nov-23 07:30N 43°26' W 002°39'3 5.6
2017-Nov-23 07:00N 43°25' W 002°43'0 0.0
2017-Nov-23 06:30N 43°25' W 002°43'1 2.7
2017-Nov-23 06:00N 43°26' W 002°42'0 0.8
2017-Nov-23 05:30N 43°26' W 002°42'1 2.0
2017-Nov-23 05:00N 43°25' W 002°43'  
2017-Nov-19 10:25N 43°25' W 002°43'1 3.0
2017-Nov-19 10:01N 43°26' W 002°43'2 4.0
2017-Nov-19 09:31N 43°28' W 002°45'4 7.7
2017-Nov-19 09:00N 43°26' W 002°49'1 2.4
2017-Nov-19 08:29N 43°27' W 002°48'2 4.6
2017-Nov-19 08:00N 43°27' W 002°45'3 5.5
2017-Nov-19 07:31N 43°25' W 002°43'0 0.0
2017-Nov-17 15:37N 43°25' W 002°43'0 0.1
2017-Nov-17 15:31N 43°25' W 002°43'0 0.1
2017-Nov-17 15:00N 43°25' W 002°43'0 0.0
2017-Nov-17 14:30N 43°25' W 002°43'2 4.3
2017-Nov-17 14:00N 43°27' W 002°43'1 2.6
2017-Nov-17 13:30N 43°28' W 002°43'0 1.0
2017-Nov-17 13:00N 43°29' W 002°43'1 1.6
2017-Nov-17 12:30N 43°28' W 002°44'5 9.1
2017-Nov-17 12:00N 43°27' W 002°50'1 1.0
2017-Nov-17 11:30N 43°26' W 002°51'1 1.6
2017-Nov-17 10:50N 43°26' W 002°49'1 1.5
2017-Nov-17 10:30N 43°26' W 002°48'0 0.4
2017-Nov-17 10:01N 43°26' W 002°48'0 0.5
2017-Nov-17 09:30N 43°26' W 002°48'0 0.5
2017-Nov-17 09:01N 43°26' W 002°48'1 1.3
2017-Nov-17 08:23N 43°27' W 002°47'1 4.0
2017-Nov-17 08:01N 43°28' W 002°46'1 1.4
2017-Nov-17 07:30N 43°28' W 002°45'1 1.3
2017-Nov-17 07:01N 43°28' W 002°44'3 5.8
2017-Nov-17 06:31N 43°25' W 002°43'0 0.1
2017-Nov-17 06:01N 43°25' W 002°43'3 6.8
2017-Nov-17 05:30N 43°28' W 002°43'3 5.2
2017-Nov-17 05:01N 43°26' W 002°42'1 0.1
2017-Nov-16 16:30N 43°25' W 002°43'0 0.0
2017-Nov-16 16:01N 43°25' W 002°43'0 0.0
2017-Nov-16 15:30N 43°25' W 002°43'3 5.9
2017-Nov-16 15:00N 43°28' W 002°45'1 1.7
2017-Nov-16 14:30N 43°28' W 002°46'1 1.3
2017-Nov-16 14:00N 43°28' W 002°47'1 1.4
2017-Nov-16 13:30N 43°28' W 002°48'3 6.1
2017-Nov-16 13:00N 43°26' W 002°52'0 0.3
2017-Nov-16 12:30N 43°26' W 002°52'1 1.5
2017-Nov-16 11:44N 43°26' W 002°50'0 1.3
2017-Nov-16 11:28N 43°26' W 002°50'2 3.4
2017-Nov-16 11:00N 43°27' W 002°48'0 0.2
2017-Nov-16 10:28N 43°27' W 002°48'1 1.4
2017-Nov-16 10:00N 43°26' W 002°48'0 0.3
2017-Nov-16 09:30N 43°26' W 002°48'0 0.7
2017-Nov-16 09:00N 43°26' W 002°49'2 3.7
2017-Nov-16 08:28N 43°27' W 002°46'1 2.4
2017-Nov-16 08:00N 43°28' W 002°45'0 0.5
2017-Nov-16 07:29N 43°28' W 002°46'1 1.3
2017-Nov-16 07:00N 43°28' W 002°45'0 0.7
2017-Nov-16 06:30N 43°28' W 002°44'2 4.3
2017-Nov-16 06:00N 43°28' W 002°47'0 1.0
2017-Nov-16 05:30N 43°28' W 002°47'4 7.4
2017-Nov-16 05:00N 43°25' W 002°43'1 0.0
2017-Nov-15 16:28N 43°25' W 002°43'0 0.1
2017-Nov-15 16:00N 43°25' W 002°43'0 0.0
2017-Nov-15 15:30N 43°25' W 002°43'3 5.6
2017-Nov-15 15:00N 43°28' W 002°45'1 2.0
2017-Nov-15 14:29N 43°28' W 002°46'1 1.5
2017-Nov-15 14:00N 43°28' W 002°45'2 3.1
2017-Nov-15 13:30N 43°28' W 002°47'0 0.8
2017-Nov-15 13:00N 43°27' W 002°48'3 6.0
2017-Nov-15 12:30N 43°26' W 002°52'0 1.0
2017-Nov-15 12:00N 43°26' W 002°51'1 1.2
2017-Nov-15 11:30N 43°26' W 002°50'1 1.0
2017-Nov-15 10:53N 43°26' W 002°49'1 1.9
2017-Nov-15 10:30N 43°26' W 002°48'0 0.3
2017-Nov-15 10:00N 43°26' W 002°48'0 0.3
2017-Nov-15 09:29N 43°26' W 002°48'0 0.2
2017-Nov-15 09:00N 43°26' W 002°48'0 0.3
2017-Nov-15 08:30N 43°26' W 002°48'3 5.7
2017-Nov-15 08:00N 43°28' W 002°45'1 1.6
2017-Nov-15 07:30N 43°28' W 002°46'0 0.7
2017-Nov-15 06:57N 43°28' W 002°45'1 1.3
2017-Nov-15 06:30N 43°28' W 002°45'2 3.7
2017-Nov-15 05:58N 43°28' W 002°47'1 1.1
2017-Nov-15 05:30N 43°28' W 002°46'3 6.7
2017-Nov-15 05:00N 43°26' W 002°43'1 0.0
2017-Nov-14 11:54N 43°25' W 002°43'0 0.0
2017-Nov-14 11:30N 43°25' W 002°43'1 1.2
2017-Nov-14 11:01N 43°25' W 002°43'4 7.4
2017-Nov-14 10:30N 43°28' W 002°47'0 0.9
2017-Nov-14 10:00N 43°28' W 002°47'1 1.5
2017-Nov-14 09:29N 43°28' W 002°46'1 1.5
2017-Nov-14 09:01N 43°28' W 002°45'0 0.8
2017-Nov-14 08:31N 43°28' W 002°46'1 1.6
2017-Nov-14 08:00N 43°28' W 002°45'2 4.5
2017-Nov-14 07:31N 43°27' W 002°48'2 2.6
2017-Nov-14 06:53N 43°26' W 002°49'1 2.4
2017-Nov-14 06:30N 43°26' W 002°48'1 2.5
2017-Nov-14 06:01N 43°28' W 002°47'1 2.7
2017-Nov-14 05:28N 43°28' W 002°46'3 7.0
2017-Nov-14 05:00N 43°26' W 002°43'  

Dump ship's entire track history